sensor_id;sensor_type;location;lat;lon;timestamp;pressure;altitude;pressure_sealevel;temperature;humidity
36514;BME280;66331;46.796;9.824;2023-01-16T00:00:59;83432.02;;;-6.17;46.27
36514;BME280;66331;46.796;9.824;2023-01-16T00:03:26;83430.58;;;-7.13;48.59
36514;BME280;66331;46.796;9.824;2023-01-16T00:05:53;83421.54;;;-6.67;48.64
36514;BME280;66331;46.796;9.824;2023-01-16T00:08:20;83418.98;;;-7.17;49.87
36514;BME280;66331;46.796;9.824;2023-01-16T00:10:47;83411.43;;;-6.62;48.27
36514;BME280;66331;46.796;9.824;2023-01-16T00:13:14;83407.24;;;-5.52;45.78
36514;BME280;66331;46.796;9.824;2023-01-16T00:15:44;83402.20;;;-6.01;45.85
36514;BME280;66331;46.796;9.824;2023-01-16T00:18:11;83396.57;;;-5.51;45.78
36514;BME280;66331;46.796;9.824;2023-01-16T00:20:38;83392.11;;;-7.15;48.60
36514;BME280;66331;46.796;9.824;2023-01-16T00:23:06;83387.60;;;-7.05;48.46
36514;BME280;66331;46.796;9.824;2023-01-16T00:25:33;83387.65;;;-6.59;47.00
36514;BME280;66331;46.796;9.824;2023-01-16T00:28:00;83390.58;;;-5.83;45.58
36514;BME280;66331;46.796;9.824;2023-01-16T00:30:27;83384.95;;;-5.70;45.80
36514;BME280;66331;46.796;9.824;2023-01-16T00:32:54;83380.39;;;-6.10;45.92
36514;BME280;66331;46.796;9.824;2023-01-16T00:35:21;83375.30;;;-6.58;47.39
36514;BME280;66331;46.796;9.824;2023-01-16T00:37:48;83370.53;;;-5.63;45.90
36514;BME280;66331;46.796;9.824;2023-01-16T00:40:15;83367.28;;;-6.03;45.67
36514;BME280;66331;46.796;9.824;2023-01-16T00:42:43;83365.45;;;-5.82;45.28
36514;BME280;66331;46.796;9.824;2023-01-16T00:45:10;83368.08;;;-7.46;48.66
36514;BME280;66331;46.796;9.824;2023-01-16T00:47:38;83363.48;;;-7.04;48.29
36514;BME280;66331;46.796;9.824;2023-01-16T00:50:06;83362.73;;;-6.94;47.29
36514;BME280;66331;46.796;9.824;2023-01-16T00:52:33;83361.07;;;-6.03;45.70
36514;BME280;66331;46.796;9.824;2023-01-16T00:55:00;83354.19;;;-6.84;47.15
36514;BME280;66331;46.796;9.824;2023-01-16T00:57:27;83349.78;;;-6.72;47.25
36514;BME280;66331;46.796;9.824;2023-01-16T00:59:54;83349.43;;;-6.77;46.57
36514;BME280;66331;46.796;9.824;2023-01-16T01:02:21;83345.25;;;-5.99;45.24
36514;BME280;66331;46.796;9.824;2023-01-16T01:04:48;83340.97;;;-6.00;45.27
36514;BME280;66331;46.796;9.824;2023-01-16T01:07:17;83336.69;;;-6.63;45.28
36514;BME280;66331;46.796;9.824;2023-01-16T01:09:45;83337.88;;;-7.95;48.57
36514;BME280;66331;46.796;9.824;2023-01-16T01:12:13;83333.58;;;-7.86;47.63
36514;BME280;66331;46.796;9.824;2023-01-16T01:14:41;83328.72;;;-7.36;46.72
36514;BME280;66331;46.796;9.824;2023-01-16T01:17:09;83316.22;;;-6.85;45.62
36514;BME280;66331;46.796;9.824;2023-01-16T01:19:36;83308.09;;;-6.49;45.64
36514;BME280;66331;46.796;9.824;2023-01-16T01:22:04;83304.21;;;-6.07;43.95
36514;BME280;66331;46.796;9.824;2023-01-16T01:24:31;83301.28;;;-6.13;43.58
36514;BME280;66331;46.796;9.824;2023-01-16T01:27:00;83299.37;;;-6.61;45.18
36514;BME280;66331;46.796;9.824;2023-01-16T01:29:28;83300.58;;;-7.09;46.07
36514;BME280;66331;46.796;9.824;2023-01-16T01:31:56;83291.82;;;-7.17;46.37
36514;BME280;66331;46.796;9.824;2023-01-16T01:34:24;83287.92;;;-6.49;45.35
36514;BME280;66331;46.796;9.824;2023-01-16T01:36:52;83286.98;;;-6.85;45.33
36514;BME280;66331;46.796;9.824;2023-01-16T01:39:20;83281.22;;;-6.79;45.39
36514;BME280;66331;46.796;9.824;2023-01-16T01:41:48;83281.98;;;-7.40;47.06
36514;BME280;66331;46.796;9.824;2023-01-16T01:44:52;83279.57;;;-8.33;46.68
36514;BME280;66331;46.796;9.824;2023-01-16T01:47:23;83275.98;;;-8.25;47.42
36514;BME280;66331;46.796;9.824;2023-01-16T01:49:56;83270.02;;;-8.82;48.93
36514;BME280;66331;46.796;9.824;2023-01-16T01:52:25;83265.71;;;-6.99;45.50
36514;BME280;66331;46.796;9.824;2023-01-16T01:54:56;83256.67;;;-6.83;45.14
36514;BME280;66331;46.796;9.824;2023-01-16T01:57:28;83249.02;;;-7.22;46.66
36514;BME280;66331;46.796;9.824;2023-01-16T02:00:02;83247.24;;;-6.78;46.69
36514;BME280;66331;46.796;9.824;2023-01-16T02:02:33;83242.44;;;-6.76;46.19
36514;BME280;66331;46.796;9.824;2023-01-16T02:05:05;83237.88;;;-7.52;46.49
36514;BME280;66331;46.796;9.824;2023-01-16T02:07:34;83230.24;;;-8.18;47.87
36514;BME280;66331;46.796;9.824;2023-01-16T02:10:10;83224.81;;;-8.07;47.33
36514;BME280;66331;46.796;9.824;2023-01-16T02:12:40;83216.48;;;-8.33;48.02
36514;BME280;66331;46.796;9.824;2023-01-16T02:15:09;83210.61;;;-7.28;46.08
36514;BME280;66331;46.796;9.824;2023-01-16T02:17:44;83204.11;;;-6.39;44.42
36514;BME280;66331;46.796;9.824;2023-01-16T02:20:18;83203.82;;;-7.40;46.60
36514;BME280;66331;46.796;9.824;2023-01-16T02:23:03;83202.12;;;-8.11;48.59
36514;BME280;66331;46.796;9.824;2023-01-16T02:26:06;83197.59;;;-7.83;46.52
36514;BME280;66331;46.796;9.824;2023-01-16T02:28:57;83194.75;;;-8.25;48.72
36514;BME280;66331;46.796;9.824;2023-01-16T02:31:33;83189.92;;;-8.06;46.51
36514;BME280;66331;46.796;9.824;2023-01-16T02:34:15;83186.42;;;-7.45;45.72
36514;BME280;66331;46.796;9.824;2023-01-16T02:36:52;83179.32;;;-7.18;45.24
36514;BME280;66331;46.796;9.824;2023-01-16T02:39:31;83172.90;;;-7.18;44.01
36514;BME280;66331;46.796;9.824;2023-01-16T02:42:07;83165.24;;;-8.39;47.54
36514;BME280;66331;46.796;9.824;2023-01-16T02:44:43;83164.33;;;-7.50;45.87
36514;BME280;66331;46.796;9.824;2023-01-16T02:47:17;83158.54;;;-8.25;46.79
36514;BME280;66331;46.796;9.824;2023-01-16T02:49:52;83148.15;;;-7.59;44.99
36514;BME280;66331;46.796;9.824;2023-01-16T02:52:23;83144.56;;;-7.20;44.14
36514;BME280;66331;46.796;9.824;2023-01-16T02:54:58;83139.12;;;-6.91;43.56
36514;BME280;66331;46.796;9.824;2023-01-16T02:57:31;83133.54;;;-8.11;46.29
36514;BME280;66331;46.796;9.824;2023-01-16T03:00:03;83127.06;;;-8.57;47.15
36514;BME280;66331;46.796;9.824;2023-01-16T03:02:30;83120.81;;;-7.81;45.20
36514;BME280;66331;46.796;9.824;2023-01-16T03:04:58;83113.23;;;-7.47;45.38
36514;BME280;66331;46.796;9.824;2023-01-16T03:07:39;83109.76;;;-8.72;46.08
36514;BME280;66331;46.796;9.824;2023-01-16T03:10:20;83108.23;;;-9.11;46.10
36514;BME280;66331;46.796;9.824;2023-01-16T03:12:59;83102.22;;;-8.53;46.73
36514;BME280;66331;46.796;9.824;2023-01-16T03:15:36;83093.38;;;-7.39;44.51
36514;BME280;66331;46.796;9.824;2023-01-16T03:18:13;83088.57;;;-8.04;46.14
36514;BME280;66331;46.796;9.824;2023-01-16T03:20:50;83084.62;;;-7.11;44.41
36514;BME280;66331;46.796;9.824;2023-01-16T03:23:25;83077.37;;;-7.91;45.23
36514;BME280;66331;46.796;9.824;2023-01-16T03:25:58;83077.86;;;-8.60;46.55
36514;BME280;66331;46.796;9.824;2023-01-16T03:28:33;83074.31;;;-9.67;48.40
36514;BME280;66331;46.796;9.824;2023-01-16T03:31:08;83070.28;;;-8.59;46.71
36514;BME280;66331;46.796;9.824;2023-01-16T03:33:44;83066.72;;;-8.33;45.52
36514;BME280;66331;46.796;9.824;2023-01-16T03:36:15;83058.06;;;-8.56;46.26
36514;BME280;66331;46.796;9.824;2023-01-16T03:38:47;83057.34;;;-7.89;45.48
36514;BME280;66331;46.796;9.824;2023-01-16T03:41:18;83052.72;;;-7.59;45.15
36514;BME280;66331;46.796;9.824;2023-01-16T03:43:52;83047.36;;;-7.66;44.51
36514;BME280;66331;46.796;9.824;2023-01-16T03:46:24;83039.57;;;-7.97;44.89
36514;BME280;66331;46.796;9.824;2023-01-16T03:48:56;83035.60;;;-7.22;43.06
36514;BME280;66331;46.796;9.824;2023-01-16T03:51:26;83027.71;;;-9.56;47.23
36514;BME280;66331;46.796;9.824;2023-01-16T03:54:00;83022.44;;;-9.17;46.07
36514;BME280;66331;46.796;9.824;2023-01-16T03:56:33;83018.36;;;-8.70;44.75
36514;BME280;66331;46.796;9.824;2023-01-16T03:59:02;83014.38;;;-8.96;45.48
36514;BME280;66331;46.796;9.824;2023-01-16T04:01:36;83009.39;;;-9.25;46.56
36514;BME280;66331;46.796;9.824;2023-01-16T04:04:06;83003.16;;;-8.66;44.33
36514;BME280;66331;46.796;9.824;2023-01-16T04:06:41;82998.18;;;-8.33;44.91
36514;BME280;66331;46.796;9.824;2023-01-16T04:09:15;82991.68;;;-8.83;45.70
36514;BME280;66331;46.796;9.824;2023-01-16T04:11:46;82993.53;;;-10.27;46.41
36514;BME280;66331;46.796;9.824;2023-01-16T04:14:17;82988.61;;;-9.91;44.46
36514;BME280;66331;46.796;9.824;2023-01-16T04:16:45;82982.82;;;-9.58;44.66
36514;BME280;66331;46.796;9.824;2023-01-16T04:19:13;82973.82;;;-9.02;44.08
36514;BME280;66331;46.796;9.824;2023-01-16T04:21:44;82966.57;;;-8.96;43.88
36514;BME280;66331;46.796;9.824;2023-01-16T04:24:12;82967.07;;;-9.40;45.43
36514;BME280;66331;46.796;9.824;2023-01-16T04:26:39;82961.39;;;-8.42;44.16
36514;BME280;66331;46.796;9.824;2023-01-16T04:29:06;82956.68;;;-10.07;46.97
36514;BME280;66331;46.796;9.824;2023-01-16T04:31:34;82950.54;;;-9.18;45.37
36514;BME280;66331;46.796;9.824;2023-01-16T04:34:02;82942.68;;;-9.02;45.45
36514;BME280;66331;46.796;9.824;2023-01-16T04:36:29;82939.69;;;-9.31;46.54
36514;BME280;66331;46.796;9.824;2023-01-16T04:38:56;82934.56;;;-8.47;44.08
36514;BME280;66331;46.796;9.824;2023-01-16T04:41:23;82933.40;;;-9.44;45.98
36514;BME280;66331;46.796;9.824;2023-01-16T04:43:51;82928.54;;;-9.13;46.02
36514;BME280;66331;46.796;9.824;2023-01-16T04:46:18;82922.37;;;-9.17;45.50
36514;BME280;66331;46.796;9.824;2023-01-16T04:48:45;82922.48;;;-10.47;47.75
36514;BME280;66331;46.796;9.824;2023-01-16T04:51:13;82915.05;;;-10.08;47.07
36514;BME280;66331;46.796;9.824;2023-01-16T04:53:40;82902.67;;;-9.27;45.68
36514;BME280;66331;46.796;9.824;2023-01-16T04:56:08;82894.39;;;-9.14;45.50
36514;BME280;66331;46.796;9.824;2023-01-16T04:58:35;82887.91;;;-9.52;45.76
36514;BME280;66331;46.796;9.824;2023-01-16T05:01:02;82883.86;;;-10.10;47.03
36514;BME280;66331;46.796;9.824;2023-01-16T05:03:29;82873.75;;;-9.28;43.64
36514;BME280;66331;46.796;9.824;2023-01-16T05:05:57;82878.74;;;-9.72;43.54
36514;BME280;66331;46.796;9.824;2023-01-16T05:08:24;82879.35;;;-9.74;44.25
36514;BME280;66331;46.796;9.824;2023-01-16T05:10:51;82868.06;;;-9.58;44.71
36514;BME280;66331;46.796;9.824;2023-01-16T05:13:19;82858.04;;;-9.74;45.24
36514;BME280;66331;46.796;9.824;2023-01-16T05:15:46;82852.83;;;-8.79;43.96
36514;BME280;66331;46.796;9.824;2023-01-16T05:18:14;82853.44;;;-10.06;46.94
36514;BME280;66331;46.796;9.824;2023-01-16T05:20:40;82853.66;;;-11.18;49.91
36514;BME280;66331;46.796;9.824;2023-01-16T05:23:08;82851.15;;;-11.31;49.44
36514;BME280;66331;46.796;9.824;2023-01-16T05:25:35;82848.10;;;-10.11;46.67
36514;BME280;66331;46.796;9.824;2023-01-16T05:28:03;82844.36;;;-10.11;46.18
36514;BME280;66331;46.796;9.824;2023-01-16T05:30:30;82840.46;;;-9.73;46.86
36514;BME280;66331;46.796;9.824;2023-01-16T05:32:57;82835.40;;;-10.48;48.30
36514;BME280;66331;46.796;9.824;2023-01-16T05:35:24;82837.04;;;-10.35;47.73
36514;BME280;66331;46.796;9.824;2023-01-16T05:37:51;82834.02;;;-10.23;47.97
36514;BME280;66331;46.796;9.824;2023-01-16T05:40:19;82833.20;;;-10.24;47.25
36514;BME280;66331;46.796;9.824;2023-01-16T05:42:46;82826.47;;;-9.67;47.59
36514;BME280;66331;46.796;9.824;2023-01-16T05:45:13;82825.02;;;-10.25;46.77
36514;BME280;66331;46.796;9.824;2023-01-16T05:47:41;82814.39;;;-9.91;46.38
36514;BME280;66331;46.796;9.824;2023-01-16T05:50:10;82809.29;;;-10.21;47.33
36514;BME280;66331;46.796;9.824;2023-01-16T05:52:37;82804.67;;;-10.07;45.77
36514;BME280;66331;46.796;9.824;2023-01-16T05:55:05;82799.87;;;-9.84;47.11
36514;BME280;66331;46.796;9.824;2023-01-16T05:57:33;82794.41;;;-9.00;45.29
36514;BME280;66331;46.796;9.824;2023-01-16T06:00:00;82784.07;;;-9.63;46.65
36514;BME280;66331;46.796;9.824;2023-01-16T06:02:27;82780.82;;;-9.63;45.74
36514;BME280;66331;46.796;9.824;2023-01-16T06:04:55;82774.72;;;-9.21;44.87
36514;BME280;66331;46.796;9.824;2023-01-16T06:07:22;82765.40;;;-9.31;45.44
36514;BME280;66331;46.796;9.824;2023-01-16T06:09:49;82756.24;;;-9.19;45.06
36514;BME280;66331;46.796;9.824;2023-01-16T06:12:17;82752.26;;;-10.08;46.59
36514;BME280;66331;46.796;9.824;2023-01-16T06:14:45;82747.91;;;-9.80;45.01
36514;BME280;66331;46.796;9.824;2023-01-16T06:17:13;82743.18;;;-9.87;45.51
36514;BME280;66331;46.796;9.824;2023-01-16T06:19:40;82742.37;;;-9.33;44.71
36514;BME280;66331;46.796;9.824;2023-01-16T06:22:08;82735.39;;;-9.65;44.06
36514;BME280;66331;46.796;9.824;2023-01-16T06:24:35;82732.72;;;-9.89;45.17
36514;BME280;66331;46.796;9.824;2023-01-16T06:27:02;82731.57;;;-9.42;44.80
36514;BME280;66331;46.796;9.824;2023-01-16T06:29:30;82729.95;;;-10.38;47.07
36514;BME280;66331;46.796;9.824;2023-01-16T06:31:57;82729.03;;;-10.40;48.06
36514;BME280;66331;46.796;9.824;2023-01-16T06:34:24;82725.35;;;-9.57;46.18
36514;BME280;66331;46.796;9.824;2023-01-16T06:36:52;82721.02;;;-10.17;47.40
36514;BME280;66331;46.796;9.824;2023-01-16T06:39:20;82717.29;;;-10.83;49.27
36514;BME280;66331;46.796;9.824;2023-01-16T06:41:47;82716.67;;;-9.52;46.63
36514;BME280;66331;46.796;9.824;2023-01-16T06:44:14;82716.75;;;-9.75;46.10
36514;BME280;66331;46.796;9.824;2023-01-16T06:46:42;82711.43;;;-10.65;47.10
36514;BME280;66331;46.796;9.824;2023-01-16T06:49:09;82704.13;;;-10.92;47.40
36514;BME280;66331;46.796;9.824;2023-01-16T06:51:37;82701.91;;;-11.01;46.16
36514;BME280;66331;46.796;9.824;2023-01-16T06:54:04;82699.82;;;-9.69;44.82
36514;BME280;66331;46.796;9.824;2023-01-16T06:56:32;82690.02;;;-9.91;45.82
36514;BME280;66331;46.796;9.824;2023-01-16T06:58:59;82684.76;;;-10.43;45.49
36514;BME280;66331;46.796;9.824;2023-01-16T07:01:26;82680.82;;;-11.30;46.48
36514;BME280;66331;46.796;9.824;2023-01-16T07:03:53;82679.23;;;-10.52;45.62
36514;BME280;66331;46.796;9.824;2023-01-16T07:06:20;82670.78;;;-10.53;44.28
36514;BME280;66331;46.796;9.824;2023-01-16T07:08:48;82673.43;;;-10.14;44.76
36514;BME280;66331;46.796;9.824;2023-01-16T07:11:16;82665.58;;;-9.57;43.45
36514;BME280;66331;46.796;9.824;2023-01-16T07:14:14;82657.92;;;-9.07;43.43
36514;BME280;66331;46.796;9.824;2023-01-16T07:16:41;82651.14;;;-8.84;43.36
36514;BME280;66331;46.796;9.824;2023-01-16T07:19:11;82645.95;;;-9.80;45.86
36514;BME280;66331;46.796;9.824;2023-01-16T07:21:40;82641.03;;;-10.73;47.40
36514;BME280;66331;46.796;9.824;2023-01-16T07:24:10;82634.47;;;-9.70;44.99
36514;BME280;66331;46.796;9.824;2023-01-16T07:26:41;82631.72;;;-10.66;46.18
36514;BME280;66331;46.796;9.824;2023-01-16T07:29:10;82619.51;;;-9.90;43.61
36514;BME280;66331;46.796;9.824;2023-01-16T07:31:37;82616.57;;;-9.91;44.19
36514;BME280;66331;46.796;9.824;2023-01-16T07:34:04;82617.85;;;-10.18;44.97
36514;BME280;66331;46.796;9.824;2023-01-16T07:36:32;82612.11;;;-10.12;44.85
36514;BME280;66331;46.796;9.824;2023-01-16T07:38:59;82607.70;;;-9.91;44.35
36514;BME280;66331;46.796;9.824;2023-01-16T07:41:26;82594.10;;;-9.84;43.96
36514;BME280;66331;46.796;9.824;2023-01-16T07:43:54;82587.88;;;-10.21;45.11
36514;BME280;66331;46.796;9.824;2023-01-16T07:46:21;82572.71;;;-8.63;43.40
36514;BME280;66331;46.796;9.824;2023-01-16T07:48:48;82578.95;;;-10.12;45.84
36514;BME280;66331;46.796;9.824;2023-01-16T07:51:16;82576.18;;;-9.15;44.37
36514;BME280;66331;46.796;9.824;2023-01-16T07:53:43;82581.30;;;-9.83;45.84
36514;BME280;66331;46.796;9.824;2023-01-16T07:56:10;82579.00;;;-9.72;46.15
36514;BME280;66331;46.796;9.824;2023-01-16T07:58:38;82570.87;;;-9.27;44.69
36514;BME280;66331;46.796;9.824;2023-01-16T08:01:05;82566.61;;;-9.23;44.09
36514;BME280;66331;46.796;9.824;2023-01-16T08:03:32;82558.29;;;-8.84;44.26
36514;BME280;66331;46.796;9.824;2023-01-16T08:05:59;82562.36;;;-10.53;47.83
36514;BME280;66331;46.796;9.824;2023-01-16T08:08:27;82566.54;;;-10.27;47.37
36514;BME280;66331;46.796;9.824;2023-01-16T08:10:55;82566.93;;;-9.52;45.94
36514;BME280;66331;46.796;9.824;2023-01-16T08:13:23;82556.31;;;-9.22;45.82
36514;BME280;66331;46.796;9.824;2023-01-16T08:15:51;82560.64;;;-10.49;48.95
36514;BME280;66331;46.796;9.824;2023-01-16T08:18:19;82552.70;;;-10.05;48.58
36514;BME280;66331;46.796;9.824;2023-01-16T08:20:46;82548.66;;;-10.12;47.48
36514;BME280;66331;46.796;9.824;2023-01-16T08:23:13;82543.57;;;-10.44;48.40
36514;BME280;66331;46.796;9.824;2023-01-16T08:25:40;82531.02;;;-9.64;46.54
36514;BME280;66331;46.796;9.824;2023-01-16T08:28:09;82528.05;;;-9.42;46.67
36514;BME280;66331;46.796;9.824;2023-01-16T08:30:36;82539.04;;;-10.13;47.24
36514;BME280;66331;46.796;9.824;2023-01-16T08:33:03;82535.35;;;-9.46;45.13
36514;BME280;66331;46.796;9.824;2023-01-16T08:35:30;82527.45;;;-9.13;44.27
36514;BME280;66331;46.796;9.824;2023-01-16T08:37:58;82523.17;;;-9.53;46.29
36514;BME280;66331;46.796;9.824;2023-01-16T08:40:25;82531.09;;;-10.10;46.62
36514;BME280;66331;46.796;9.824;2023-01-16T08:42:52;82521.98;;;-9.29;44.72
36514;BME280;66331;46.796;9.824;2023-01-16T08:45:19;82523.03;;;-9.30;45.65
36514;BME280;66331;46.796;9.824;2023-01-16T08:47:46;82514.71;;;-9.27;44.79
36514;BME280;66331;46.796;9.824;2023-01-16T08:50:17;82530.57;;;-10.88;48.09
36514;BME280;66331;46.796;9.824;2023-01-16T08:52:45;82518.98;;;-10.02;46.99
36514;BME280;66331;46.796;9.824;2023-01-16T08:55:12;82508.77;;;-9.45;45.26
36514;BME280;66331;46.796;9.824;2023-01-16T08:57:39;82505.32;;;-9.57;45.98
36514;BME280;66331;46.796;9.824;2023-01-16T09:00:09;82494.15;;;-9.25;45.62
36514;BME280;66331;46.796;9.824;2023-01-16T09:02:36;82490.07;;;-8.24;43.45
36514;BME280;66331;46.796;9.824;2023-01-16T09:05:04;82478.00;;;-8.64;43.63
36514;BME280;66331;46.796;9.824;2023-01-16T09:07:32;82464.38;;;-7.97;43.48
36514;BME280;66331;46.796;9.824;2023-01-16T09:09:59;82459.66;;;-9.86;45.89
36514;BME280;66331;46.796;9.824;2023-01-16T09:12:27;82450.32;;;-8.60;43.88
36514;BME280;66331;46.796;9.824;2023-01-16T09:14:54;82440.27;;;-8.83;44.05
36514;BME280;66331;46.796;9.824;2023-01-16T09:17:22;82439.65;;;-9.50;45.82
36514;BME280;66331;46.796;9.824;2023-01-16T09:19:48;82438.63;;;-9.94;47.64
36514;BME280;66331;46.796;9.824;2023-01-16T09:22:23;82432.76;;;-9.44;45.50
36514;BME280;66331;46.796;9.824;2023-01-16T09:24:50;82433.38;;;-7.53;42.63
36514;BME280;66331;46.796;9.824;2023-01-16T09:27:17;82432.24;;;-8.20;44.39
36514;BME280;66331;46.796;9.824;2023-01-16T09:29:46;82419.91;;;-7.81;44.69
36514;BME280;66331;46.796;9.824;2023-01-16T09:32:14;82418.50;;;-7.07;44.28
36514;BME280;66331;46.796;9.824;2023-01-16T09:34:41;82411.99;;;-6.09;42.50
36514;BME280;66331;46.796;9.824;2023-01-16T09:37:09;82410.32;;;-6.58;43.26
36514;BME280;66331;46.796;9.824;2023-01-16T09:39:37;82405.44;;;-6.11;43.07
36514;BME280;66331;46.796;9.824;2023-01-16T09:42:19;82398.87;;;-6.36;43.27
36514;BME280;66331;46.796;9.824;2023-01-16T09:44:52;82393.51;;;-6.59;45.11
36514;BME280;66331;46.796;9.824;2023-01-16T09:47:23;82386.89;;;-6.97;46.49
36514;BME280;66331;46.796;9.824;2023-01-16T09:49:55;82385.71;;;-7.04;44.31
36514;BME280;66331;46.796;9.824;2023-01-16T09:52:28;82385.44;;;-6.22;44.17
36514;BME280;66331;46.796;9.824;2023-01-16T09:55:03;82380.10;;;-5.69;42.09
36514;BME280;66331;46.796;9.824;2023-01-16T09:57:33;82371.61;;;-5.69;42.57
36514;BME280;66331;46.796;9.824;2023-01-16T10:00:04;82366.02;;;-5.87;41.19
36514;BME280;66331;46.796;9.824;2023-01-16T10:02:33;82354.96;;;-4.92;40.08
36514;BME280;66331;46.796;9.824;2023-01-16T10:05:03;82357.58;;;-4.55;39.41
36514;BME280;66331;46.796;9.824;2023-01-16T10:07:45;82360.27;;;-5.58;41.30
36514;BME280;66331;46.796;9.824;2023-01-16T10:10:29;82362.72;;;-6.52;43.96
36514;BME280;66331;46.796;9.824;2023-01-16T10:13:08;82352.32;;;-5.95;43.04
36514;BME280;66331;46.796;9.824;2023-01-16T10:15:47;82349.59;;;-4.94;41.03
36514;BME280;66331;46.796;9.824;2023-01-16T10:18:25;82340.16;;;-4.52;40.03
36514;BME280;66331;46.796;9.824;2023-01-16T10:21:07;82335.58;;;-4.14;40.32
36514;BME280;66331;46.796;9.824;2023-01-16T10:23:46;82333.35;;;-5.04;43.03
36514;BME280;66331;46.796;9.824;2023-01-16T10:26:24;82321.05;;;-4.52;42.47
36514;BME280;66331;46.796;9.824;2023-01-16T10:29:01;82316.55;;;-4.75;41.80
36514;BME280;66331;46.796;9.824;2023-01-16T10:31:36;82303.39;;;-5.01;39.56
36514;BME280;66331;46.796;9.824;2023-01-16T10:34:10;82292.02;;;-3.48;38.06
36514;BME280;66331;46.796;9.824;2023-01-16T10:36:44;82296.15;;;-2.93;34.88
36514;BME280;66331;46.796;9.824;2023-01-16T10:39:15;82288.38;;;-2.99;33.29
36514;BME280;66331;46.796;9.824;2023-01-16T10:41:47;82278.70;;;-3.28;38.76
36514;BME280;66331;46.796;9.824;2023-01-16T10:44:29;82278.21;;;-2.82;38.97
36514;BME280;66331;46.796;9.824;2023-01-16T10:46:56;82275.73;;;-2.05;36.55
36514;BME280;66331;46.796;9.824;2023-01-16T10:49:24;82273.72;;;-2.35;34.98
36514;BME280;66331;46.796;9.824;2023-01-16T10:51:52;82273.39;;;-2.91;36.82
36514;BME280;66331;46.796;9.824;2023-01-16T10:54:19;82265.36;;;-2.26;35.88
36514;BME280;66331;46.796;9.824;2023-01-16T10:56:47;82263.37;;;-2.03;34.95
36514;BME280;66331;46.796;9.824;2023-01-16T10:59:15;82260.53;;;-2.45;34.14
36514;BME280;66331;46.796;9.824;2023-01-16T11:01:42;82259.00;;;-2.95;34.61
36514;BME280;66331;46.796;9.824;2023-01-16T11:04:11;82254.77;;;-2.29;35.32
36514;BME280;66331;46.796;9.824;2023-01-16T11:06:39;82252.95;;;-1.77;33.97
36514;BME280;66331;46.796;9.824;2023-01-16T11:09:15;82250.35;;;-2.38;34.73
36514;BME280;66331;46.796;9.824;2023-01-16T11:11:50;82249.82;;;-2.64;35.69
36514;BME280;66331;46.796;9.824;2023-01-16T11:14:21;82244.04;;;-2.73;35.76
36514;BME280;66331;46.796;9.824;2023-01-16T11:16:49;82238.38;;;-2.55;34.49
36514;BME280;66331;46.796;9.824;2023-01-16T11:19:19;82233.59;;;-2.58;35.18
36514;BME280;66331;46.796;9.824;2023-01-16T11:21:50;82236.73;;;-1.95;34.77
36514;BME280;66331;46.796;9.824;2023-01-16T11:24:20;82231.69;;;-1.62;34.39
36514;BME280;66331;46.796;9.824;2023-01-16T11:26:50;82222.53;;;-1.05;33.63
36514;BME280;66331;46.796;9.824;2023-01-16T11:29:20;82215.78;;;-0.99;32.26
36514;BME280;66331;46.796;9.824;2023-01-16T11:31:51;82218.47;;;-1.13;33.56
36514;BME280;66331;46.796;9.824;2023-01-16T11:34:19;82219.50;;;-0.54;32.72
36514;BME280;66331;46.796;9.824;2023-01-16T11:36:47;82223.92;;;-0.81;31.74
36514;BME280;66331;46.796;9.824;2023-01-16T11:39:23;82224.01;;;-2.38;31.99
36514;BME280;66331;46.796;9.824;2023-01-16T11:41:58;82222.99;;;-2.12;32.74
36514;BME280;66331;46.796;9.824;2023-01-16T11:44:28;82218.52;;;-1.85;33.16
36514;BME280;66331;46.796;9.824;2023-01-16T11:46:57;82210.38;;;-1.72;31.32
36514;BME280;66331;46.796;9.824;2023-01-16T11:49:28;82209.76;;;-2.15;31.36
36514;BME280;66331;46.796;9.824;2023-01-16T11:51:59;82202.11;;;-1.63;30.87
36514;BME280;66331;46.796;9.824;2023-01-16T11:54:28;82194.81;;;-1.17;30.74
36514;BME280;66331;46.796;9.824;2023-01-16T11:57:08;82190.54;;;-1.40;29.59
36514;BME280;66331;46.796;9.824;2023-01-16T11:59:47;82183.90;;;-0.67;28.48
36514;BME280;66331;46.796;9.824;2023-01-16T12:02:31;82182.53;;;-1.15;29.66
36514;BME280;66331;46.796;9.824;2023-01-16T12:05:13;82188.10;;;-2.88;32.27
36514;BME280;66331;46.796;9.824;2023-01-16T12:07:53;82185.39;;;-2.56;32.53
36514;BME280;66331;46.796;9.824;2023-01-16T12:10:29;82182.81;;;-1.79;32.78
36514;BME280;66331;46.796;9.824;2023-01-16T12:13:03;82178.17;;;-2.09;32.26
36514;BME280;66331;46.796;9.824;2023-01-16T12:15:35;82174.45;;;-3.12;33.52
36514;BME280;66331;46.796;9.824;2023-01-16T12:18:12;82168.64;;;-1.41;32.54
36514;BME280;66331;46.796;9.824;2023-01-16T12:20:51;82166.54;;;-2.16;32.67
36514;BME280;66331;46.796;9.824;2023-01-16T12:23:39;82158.68;;;-1.72;32.94
36514;BME280;66331;46.796;9.824;2023-01-16T12:26:19;82139.97;;;-1.08;31.47
36514;BME280;66331;46.796;9.824;2023-01-16T12:29:02;82140.96;;;-2.11;32.34
36514;BME280;66331;46.796;9.824;2023-01-16T12:31:49;82134.94;;;-1.83;32.25
36514;BME280;66331;46.796;9.824;2023-01-16T12:36:08;82133.99;;;-1.89;33.48
36514;BME280;66331;46.796;9.824;2023-01-16T12:38:49;82121.36;;;-1.93;32.59
36514;BME280;66331;46.796;9.824;2023-01-16T12:41:20;82119.89;;;-1.80;33.47
36514;BME280;66331;46.796;9.824;2023-01-16T12:43:59;82121.77;;;-1.40;32.58
36514;BME280;66331;46.796;9.824;2023-01-16T12:46:37;82123.15;;;-1.59;32.68
36514;BME280;66331;46.796;9.824;2023-01-16T12:49:19;82123.53;;;-1.84;31.90
36514;BME280;66331;46.796;9.824;2023-01-16T12:52:01;82123.17;;;-2.82;33.26
36514;BME280;66331;46.796;9.824;2023-01-16T12:54:50;82125.06;;;-2.62;34.11
36514;BME280;66331;46.796;9.824;2023-01-16T12:57:35;82121.43;;;-3.43;35.06
36514;BME280;66331;46.796;9.824;2023-01-16T13:00:10;82121.39;;;-2.83;34.77
36514;BME280;66331;46.796;9.824;2023-01-16T13:02:43;82124.33;;;-1.96;34.24
36514;BME280;66331;46.796;9.824;2023-01-16T13:05:17;82121.22;;;-2.66;34.34
36514;BME280;66331;46.796;9.824;2023-01-16T13:07:50;82114.50;;;-2.13;33.98
36514;BME280;66331;46.796;9.824;2023-01-16T13:10:21;82114.17;;;-3.17;34.59
36514;BME280;66331;46.796;9.824;2023-01-16T13:12:50;82114.19;;;-2.98;34.80
36514;BME280;66331;46.796;9.824;2023-01-16T13:15:22;82109.66;;;-2.58;34.40
36514;BME280;66331;46.796;9.824;2023-01-16T13:17:56;82106.69;;;-2.99;34.85